N2MZ KVNY-KLAS
Flight info
| Callsign | N2MZ |
|---|---|
| Flight time | 0h 49m |
| Altitude | 39000 |
| Route | MISEN RNDRZ4 |
| Aircraft | C25B/M-SDE2E3FGHRWXY/LB1 |
Departure
| Time | 2026-05-06 04:27 |
|---|---|
| Airport | Van Nuys Airport (KVNY) |
Arrival
| Time | 2026-05-06 05:17 |
|---|---|
| Airport | Harry Reid International Airport (KLAS) |
| Time | Latitude | Longitude | Altitude | Speed | Heading |
|---|---|---|---|---|---|
| 2026-05-06 03:51 | 34.20234 | -118.49144 | 759 ft | 0 kts | 193° |
| 2026-05-06 04:19 | 34.20219 | -118.49132 | 758 ft | 7 kts | 109° |
| 2026-05-06 04:19 | 34.20232 | -118.49079 | 759 ft | 9 kts | 19° |
| 2026-05-06 04:19 | 34.20324 | -118.49092 | 764 ft | 18 kts | 356° |
| 2026-05-06 04:19 | 34.20446 | -118.49107 | 770 ft | 16 kts | 354° |
| 2026-05-06 04:20 | 34.20553 | -118.49117 | 774 ft | 15 kts | 356° |
| 2026-05-06 04:20 | 34.20654 | -118.49126 | 778 ft | 14 kts | 356° |
| 2026-05-06 04:20 | 34.20746 | -118.49134 | 782 ft | 12 kts | 356° |
| 2026-05-06 04:20 | 34.20825 | -118.49140 | 785 ft | 11 kts | 356° |
| 2026-05-06 04:21 | 34.20901 | -118.49147 | 787 ft | 11 kts | 355° |
| 2026-05-06 04:21 | 34.20987 | -118.49155 | 787 ft | 13 kts | 355° |
| 2026-05-06 04:21 | 34.21083 | -118.49165 | 787 ft | 14 kts | 355° |
| 2026-05-06 04:21 | 34.21167 | -118.49174 | 789 ft | 14 kts | 355° |
| 2026-05-06 04:22 | 34.21265 | -118.49181 | 791 ft | 14 kts | 356° |
| 2026-05-06 04:22 | 34.21370 | -118.49192 | 791 ft | 16 kts | 355° |
| 2026-05-06 04:22 | 34.21486 | -118.49206 | 791 ft | 17 kts | 351° |
| 2026-05-06 04:23 | 34.21675 | -118.49229 | 799 ft | 11 kts | 1° |
| 2026-05-06 04:23 | 34.21754 | -118.49230 | 801 ft | 11 kts | 356° |
| 2026-05-06 04:23 | 34.21834 | -118.49236 | 803 ft | 11 kts | 6° |
| 2026-05-06 04:23 | 34.21860 | -118.49224 | 804 ft | 0 kts | 39° |
| 2026-05-06 04:26 | 34.21876 | -118.49195 | 804 ft | 9 kts | 76° |
| 2026-05-06 04:26 | 34.21851 | -118.49124 | 803 ft | 12 kts | 164° |
| 2026-05-06 04:26 | 34.21723 | -118.49108 | 799 ft | 59 kts | 176° |
| 2026-05-06 04:27 | 34.20849 | -118.49025 | 851 ft | 184 kts | 174° |
| 2026-05-06 04:27 | 34.19380 | -118.48737 | 1892 ft | 224 kts | 171° |
| 2026-05-06 04:27 | 34.17935 | -118.48257 | 3192 ft | 217 kts | 149° |
| 2026-05-06 04:27 | 34.16914 | -118.46886 | 4083 ft | 223 kts | 127° |
| 2026-05-06 04:28 | 34.16117 | -118.45293 | 5006 ft | 226 kts | 116° |
| 2026-05-06 04:28 | 34.15405 | -118.43583 | 5918 ft | 229 kts | 118° |
| 2026-05-06 04:28 | 34.15010 | -118.41734 | 6729 ft | 234 kts | 83° |
| 2026-05-06 04:28 | 34.15758 | -118.39993 | 7452 ft | 243 kts | 43° |
| 2026-05-06 04:29 | 34.16931 | -118.39173 | 8005 ft | 249 kts | 18° |
| 2026-05-06 04:29 | 34.18643 | -118.38781 | 8706 ft | 254 kts | 6° |
| 2026-05-06 04:29 | 34.20421 | -118.38541 | 9414 ft | 260 kts | 7° |
| 2026-05-06 04:29 | 34.22227 | -118.38199 | 10124 ft | 264 kts | 9° |
| 2026-05-06 04:30 | 34.24040 | -118.37803 | 10826 ft | 267 kts | 9° |
| 2026-05-06 04:30 | 34.25890 | -118.37411 | 11533 ft | 270 kts | 9° |
| 2026-05-06 04:30 | 34.27743 | -118.37029 | 12233 ft | 272 kts | 9° |
| 2026-05-06 04:30 | 34.29612 | -118.36648 | 12932 ft | 273 kts | 9° |
| 2026-05-06 04:31 | 34.31461 | -118.36264 | 13621 ft | 273 kts | 9° |
| 2026-05-06 04:31 | 34.33357 | -118.35872 | 14324 ft | 273 kts | 9° |
| 2026-05-06 04:31 | 34.35209 | -118.35487 | 15012 ft | 273 kts | 9° |
| 2026-05-06 04:31 | 34.37079 | -118.35101 | 15705 ft | 272 kts | 9° |
| 2026-05-06 04:32 | 34.38943 | -118.34714 | 16398 ft | 271 kts | 9° |
| 2026-05-06 04:32 | 34.40788 | -118.34332 | 17077 ft | 270 kts | 9° |
| 2026-05-06 04:32 | 34.42641 | -118.33948 | 17693 ft | 271 kts | 9° |
| 2026-05-06 04:32 | 34.44508 | -118.33560 | 18313 ft | 272 kts | 9° |
| 2026-05-06 04:33 | 34.46316 | -118.32909 | 18926 ft | 273 kts | 26° |
| 2026-05-06 04:33 | 34.47916 | -118.31666 | 19539 ft | 273 kts | 39° |
| 2026-05-06 04:33 | 34.49368 | -118.30183 | 20158 ft | 273 kts | 39° |
| 2026-05-06 04:33 | 34.50838 | -118.28726 | 20776 ft | 273 kts | 39° |
| 2026-05-06 04:34 | 34.52292 | -118.27277 | 21327 ft | 275 kts | 39° |
| 2026-05-06 04:34 | 34.53787 | -118.25781 | 21837 ft | 283 kts | 39° |
| 2026-05-06 04:34 | 34.55347 | -118.24219 | 22349 ft | 291 kts | 39° |
| 2026-05-06 04:34 | 34.56920 | -118.22640 | 22854 ft | 297 kts | 39° |
| 2026-05-06 04:35 | 34.58507 | -118.21053 | 23353 ft | 302 kts | 39° |
| 2026-05-06 04:35 | 34.60147 | -118.19405 | 23861 ft | 308 kts | 39° |
| 2026-05-06 04:35 | 34.61807 | -118.17745 | 24366 ft | 312 kts | 39° |
| 2026-05-06 04:35 | 34.63494 | -118.16047 | 24872 ft | 317 kts | 39° |
| 2026-05-06 04:36 | 34.65116 | -118.14242 | 25368 ft | 320 kts | 49° |
| 2026-05-06 04:36 | 34.66344 | -118.11975 | 25868 ft | 324 kts | 63° |
| 2026-05-06 04:36 | 34.67100 | -118.09394 | 26365 ft | 327 kts | 77° |
| 2026-05-06 04:36 | 34.67558 | -118.06682 | 26875 ft | 329 kts | 78° |
| 2026-05-06 04:37 | 34.68022 | -118.03953 | 27373 ft | 331 kts | 78° |
| 2026-05-06 04:37 | 34.68489 | -118.01191 | 27877 ft | 333 kts | 78° |
| 2026-05-06 04:37 | 34.68955 | -117.98434 | 28377 ft | 335 kts | 78° |
| 2026-05-06 04:37 | 34.69288 | -117.95632 | 28870 ft | 336 kts | 86° |
| 2026-05-06 04:38 | 34.69434 | -117.92792 | 28999 ft | 347 kts | 86° |
| 2026-05-06 04:38 | 34.69791 | -117.86877 | 29011 ft | 354 kts | 85° |
| 2026-05-06 04:39 | 34.70154 | -117.80882 | 29010 ft | 358 kts | 86° |
| 2026-05-06 04:39 | 34.70493 | -117.74814 | 29011 ft | 361 kts | 88° |
| 2026-05-06 04:40 | 34.70730 | -117.68703 | 29010 ft | 363 kts | 86° |
| 2026-05-06 04:40 | 34.70976 | -117.62614 | 29010 ft | 364 kts | 87° |
| 2026-05-06 04:41 | 34.71208 | -117.56453 | 29009 ft | 366 kts | 87° |
| 2026-05-06 04:41 | 34.71597 | -117.50299 | 29005 ft | 366 kts | 77° |
| 2026-05-06 04:42 | 34.73142 | -117.44409 | 29006 ft | 366 kts | 72° |
| 2026-05-06 04:42 | 34.74701 | -117.38518 | 29010 ft | 367 kts | 72° |
| 2026-05-06 04:43 | 34.76274 | -117.32608 | 29011 ft | 367 kts | 72° |
| 2026-05-06 04:43 | 34.77842 | -117.26688 | 29011 ft | 368 kts | 72° |
| 2026-05-06 04:44 | 34.79412 | -117.20754 | 29009 ft | 369 kts | 72° |
| 2026-05-06 04:44 | 34.80980 | -117.14809 | 29011 ft | 369 kts | 72° |
| 2026-05-06 04:45 | 34.82536 | -117.08899 | 29011 ft | 369 kts | 72° |
| 2026-05-06 04:45 | 34.84099 | -117.02951 | 29011 ft | 369 kts | 72° |
| 2026-05-06 04:46 | 34.85659 | -116.96998 | 29011 ft | 369 kts | 72° |
| 2026-05-06 04:46 | 34.86955 | -116.92037 | 29011 ft | 370 kts | 72° |
| 2026-05-06 04:47 | 34.88767 | -116.85102 | 29010 ft | 370 kts | 72° |
| 2026-05-06 04:47 | 34.90323 | -116.79124 | 29011 ft | 370 kts | 72° |
| 2026-05-06 04:48 | 34.91632 | -116.74123 | 29010 ft | 370 kts | 70° |
| 2026-05-06 04:48 | 34.92766 | -116.71360 | 29004 ft | 370 kts | 57° |
| 2026-05-06 04:48 | 34.94239 | -116.68787 | 29003 ft | 370 kts | 55° |
| 2026-05-06 04:49 | 34.97152 | -116.63631 | 29003 ft | 370 kts | 55° |
| 2026-05-06 04:49 | 35.00073 | -116.58455 | 29005 ft | 370 kts | 55° |
| 2026-05-06 04:50 | 35.02989 | -116.53282 | 29005 ft | 370 kts | 55° |
| 2026-05-06 04:50 | 35.05909 | -116.48091 | 29006 ft | 370 kts | 55° |
| 2026-05-06 04:51 | 35.08801 | -116.42944 | 29006 ft | 370 kts | 55° |
| 2026-05-06 04:51 | 35.12021 | -116.38067 | 29000 ft | 369 kts | 45° |
| 2026-05-06 04:51 | 35.13803 | -116.35803 | 28883 ft | 373 kts | 46° |
| 2026-05-06 04:52 | 35.15581 | -116.33497 | 28426 ft | 370 kts | 46° |
| 2026-05-06 04:52 | 35.17326 | -116.31214 | 27938 ft | 366 kts | 46° |
| 2026-05-06 04:52 | 35.19071 | -116.28968 | 27453 ft | 363 kts | 46° |
| 2026-05-06 04:52 | 35.20796 | -116.26735 | 26973 ft | 360 kts | 46° |
| 2026-05-06 04:53 | 35.22486 | -116.24552 | 26502 ft | 357 kts | 46° |
| 2026-05-06 04:53 | 35.24121 | -116.22285 | 26029 ft | 354 kts | 49° |
| 2026-05-06 04:53 | 35.25759 | -116.20050 | 25563 ft | 351 kts | 47° |
| 2026-05-06 04:53 | 35.27392 | -116.17851 | 25096 ft | 349 kts | 47° |
| 2026-05-06 04:54 | 35.29005 | -116.15641 | 24632 ft | 347 kts | 48° |
| 2026-05-06 04:54 | 35.30598 | -116.13451 | 24178 ft | 344 kts | 48° |
| 2026-05-06 04:54 | 35.32182 | -116.11267 | 23726 ft | 342 kts | 48° |
| 2026-05-06 04:54 | 35.33771 | -116.09099 | 23258 ft | 340 kts | 48° |
| 2026-05-06 04:55 | 35.35337 | -116.06941 | 22814 ft | 338 kts | 48° |
| 2026-05-06 04:55 | 35.36885 | -116.04821 | 22369 ft | 337 kts | 48° |
| 2026-05-06 04:55 | 35.38433 | -116.02682 | 21924 ft | 335 kts | 48° |
| 2026-05-06 04:55 | 35.39986 | -116.00555 | 21477 ft | 334 kts | 48° |
| 2026-05-06 04:56 | 35.41517 | -115.98438 | 21037 ft | 332 kts | 48° |
| 2026-05-06 04:56 | 35.43056 | -115.96325 | 20595 ft | 331 kts | 48° |
| 2026-05-06 04:56 | 35.44575 | -115.94224 | 20157 ft | 330 kts | 48° |
| 2026-05-06 04:56 | 35.46102 | -115.92123 | 19718 ft | 328 kts | 48° |
| 2026-05-06 04:57 | 35.47612 | -115.90034 | 19283 ft | 327 kts | 48° |
| 2026-05-06 04:57 | 35.49120 | -115.87956 | 18850 ft | 326 kts | 48° |
| 2026-05-06 04:57 | 35.50619 | -115.85880 | 18417 ft | 324 kts | 48° |
| 2026-05-06 04:57 | 35.52095 | -115.83841 | 17991 ft | 323 kts | 48° |
| 2026-05-06 04:58 | 35.53580 | -115.81787 | 17564 ft | 322 kts | 48° |
| 2026-05-06 04:58 | 35.55064 | -115.79728 | 17135 ft | 320 kts | 48° |
| 2026-05-06 04:58 | 35.56556 | -115.77667 | 16774 ft | 317 kts | 48° |
| 2026-05-06 04:58 | 35.57996 | -115.75662 | 16379 ft | 316 kts | 48° |
| 2026-05-06 04:59 | 35.59448 | -115.73659 | 16086 ft | 311 kts | 48° |
| 2026-05-06 04:59 | 35.60882 | -115.71705 | 16083 ft | 306 kts | 47° |
| 2026-05-06 04:59 | 35.62342 | -115.69775 | 16082 ft | 312 kts | 47° |
| 2026-05-06 04:59 | 35.63807 | -115.67788 | 16081 ft | 316 kts | 47° |
| 2026-05-06 05:00 | 35.65290 | -115.65787 | 16083 ft | 318 kts | 47° |
| 2026-05-06 05:00 | 35.66780 | -115.63762 | 16084 ft | 320 kts | 47° |
| 2026-05-06 05:00 | 35.68283 | -115.61739 | 16086 ft | 317 kts | 47° |
| 2026-05-06 05:00 | 35.69733 | -115.59773 | 16085 ft | 305 kts | 47° |
| 2026-05-06 05:01 | 35.71146 | -115.57860 | 16077 ft | 299 kts | 47° |
| 2026-05-06 05:01 | 35.72560 | -115.55992 | 15915 ft | 306 kts | 43° |
| 2026-05-06 05:01 | 35.74349 | -115.54525 | 15666 ft | 314 kts | 27° |
| 2026-05-06 05:01 | 35.76265 | -115.53185 | 15384 ft | 322 kts | 31° |
| 2026-05-06 05:02 | 35.78222 | -115.51774 | 15083 ft | 329 kts | 29° |
| 2026-05-06 05:02 | 35.80209 | -115.50409 | 14783 ft | 321 kts | 29° |
| 2026-05-06 05:02 | 35.82123 | -115.49067 | 14488 ft | 312 kts | 29° |
| 2026-05-06 05:02 | 35.83990 | -115.47762 | 14216 ft | 304 kts | 29° |
| 2026-05-06 05:03 | 35.85795 | -115.46484 | 13949 ft | 298 kts | 29° |
| 2026-05-06 05:03 | 35.87585 | -115.45236 | 13683 ft | 293 kts | 29° |
| 2026-05-06 05:03 | 35.89346 | -115.43993 | 13420 ft | 289 kts | 29° |
| 2026-05-06 05:03 | 35.91080 | -115.42781 | 13161 ft | 286 kts | 29° |
| 2026-05-06 05:04 | 35.92795 | -115.41576 | 12905 ft | 283 kts | 29° |
| 2026-05-06 05:04 | 35.94489 | -115.40405 | 12650 ft | 281 kts | 29° |
| 2026-05-06 05:04 | 35.96179 | -115.39220 | 12398 ft | 279 kts | 29° |
| 2026-05-06 05:04 | 35.97867 | -115.38046 | 12146 ft | 277 kts | 29° |
| 2026-05-06 05:05 | 35.99377 | -115.36595 | 11884 ft | 276 kts | 47° |
| 2026-05-06 05:05 | 36.00666 | -115.34874 | 11621 ft | 274 kts | 43° |
| 2026-05-06 05:05 | 36.02093 | -115.33302 | 11275 ft | 275 kts | 41° |
| 2026-05-06 05:05 | 36.03521 | -115.31723 | 10919 ft | 275 kts | 41° |
| 2026-05-06 05:06 | 36.04949 | -115.30167 | 10566 ft | 271 kts | 41° |
| 2026-05-06 05:06 | 36.06352 | -115.28634 | 10085 ft | 266 kts | 41° |
| 2026-05-06 05:06 | 36.07728 | -115.27134 | 9609 ft | 260 kts | 41° |
| 2026-05-06 05:06 | 36.09023 | -115.25719 | 9585 ft | 238 kts | 41° |
| 2026-05-06 05:07 | 36.10302 | -115.24553 | 9574 ft | 218 kts | 26° |
| 2026-05-06 05:07 | 36.11656 | -115.23856 | 9575 ft | 213 kts | 21° |
| 2026-05-06 05:07 | 36.13051 | -115.23157 | 9578 ft | 214 kts | 21° |
| 2026-05-06 05:07 | 36.14443 | -115.22477 | 9578 ft | 215 kts | 21° |
| 2026-05-06 05:08 | 36.15822 | -115.21800 | 9577 ft | 216 kts | 21° |
| 2026-05-06 05:08 | 36.17221 | -115.21113 | 9577 ft | 217 kts | 21° |
| 2026-05-06 05:08 | 36.18616 | -115.20435 | 9575 ft | 214 kts | 21° |
| 2026-05-06 05:08 | 36.19982 | -115.19761 | 9577 ft | 207 kts | 21° |
| 2026-05-06 05:09 | 36.21296 | -115.19117 | 9573 ft | 199 kts | 22° |
| 2026-05-06 05:09 | 36.22299 | -115.18012 | 9435 ft | 199 kts | 58° |
| 2026-05-06 05:09 | 36.23013 | -115.16487 | 9042 ft | 213 kts | 58° |
| 2026-05-06 05:09 | 36.23713 | -115.14810 | 8647 ft | 221 kts | 64° |
| 2026-05-06 05:10 | 36.24548 | -115.13173 | 8259 ft | 228 kts | 54° |
| 2026-05-06 05:10 | 36.25438 | -115.11518 | 7874 ft | 233 kts | 58° |
| 2026-05-06 05:10 | 36.26276 | -115.09781 | 7485 ft | 237 kts | 59° |
| 2026-05-06 05:10 | 36.27112 | -115.08033 | 7107 ft | 240 kts | 59° |
| 2026-05-06 05:11 | 36.27672 | -115.06169 | 6707 ft | 241 kts | 87° |
| 2026-05-06 05:11 | 36.27225 | -115.04199 | 6297 ft | 242 kts | 123° |
| 2026-05-06 05:11 | 36.25919 | -115.03014 | 6084 ft | 228 kts | 165° |
| 2026-05-06 05:11 | 36.24478 | -115.03196 | 6071 ft | 197 kts | 209° |
| 2026-05-06 05:12 | 36.23715 | -115.04405 | 6074 ft | 169 kts | 253° |
| 2026-05-06 05:12 | 36.23377 | -115.05704 | 6070 ft | 150 kts | 246° |
| 2026-05-06 05:12 | 36.22907 | -115.06785 | 6065 ft | 135 kts | 238° |
| 2026-05-06 05:12 | 36.22204 | -115.07590 | 6074 ft | 142 kts | 214° |
| 2026-05-06 05:13 | 36.21399 | -115.08348 | 5942 ft | 153 kts | 221° |
| 2026-05-06 05:13 | 36.20543 | -115.09151 | 5658 ft | 154 kts | 215° |
| 2026-05-06 05:13 | 36.19681 | -115.09925 | 5233 ft | 152 kts | 218° |
| 2026-05-06 05:13 | 36.18795 | -115.10623 | 4803 ft | 151 kts | 203° |
| 2026-05-06 05:14 | 36.17830 | -115.11105 | 4366 ft | 149 kts | 206° |
| 2026-05-06 05:14 | 36.16902 | -115.11681 | 3954 ft | 149 kts | 205° |
| 2026-05-06 05:14 | 36.15961 | -115.12198 | 3532 ft | 148 kts | 206° |
| 2026-05-06 05:14 | 36.15043 | -115.12742 | 3114 ft | 148 kts | 205° |
| 2026-05-06 05:15 | 36.14108 | -115.13264 | 2691 ft | 148 kts | 206° |
| 2026-05-06 05:15 | 36.13171 | -115.13777 | 2641 ft | 140 kts | 201° |
| 2026-05-06 05:15 | 36.12356 | -115.14212 | 2664 ft | 118 kts | 206° |
| 2026-05-06 05:15 | 36.11628 | -115.14668 | 2454 ft | 118 kts | 205° |
| 2026-05-06 05:16 | 36.10891 | -115.15110 | 2318 ft | 119 kts | 205° |
| 2026-05-06 05:16 | 36.10129 | -115.15550 | 2184 ft | 122 kts | 204° |
| 2026-05-06 05:16 | 36.09389 | -115.15968 | 2119 ft | 106 kts | 204° |
| 2026-05-06 05:16 | 36.08815 | -115.16298 | 2151 ft | 75 kts | 206° |
| 2026-05-06 05:17 | 36.08511 | -115.16498 | 2161 ft | 41 kts | 218° |
| 2026-05-06 05:17 | 36.08378 | -115.16667 | 2169 ft | 11 kts | 231° |
| 2026-05-06 05:17 | 36.08367 | -115.16683 | 2167 ft | 0 kts | 230° |
| 2026-05-06 05:18 | 36.08366 | -115.16684 | 2167 ft | 3 kts | 229° |
| 2026-05-06 05:18 | 36.08298 | -115.16751 | 2171 ft | 19 kts | 212° |
| 2026-05-06 05:18 | 36.08280 | -115.16851 | 2165 ft | 3 kts | 252° |
| 2026-05-06 05:18 | 36.08229 | -115.16881 | 2175 ft | 13 kts | 202° |
| 2026-05-06 05:19 | 36.08123 | -115.16934 | 2178 ft | 9 kts | 203° |
| 2026-05-06 05:19 | 36.08096 | -115.16948 | 2178 ft | 0 kts | 204° |
| 2026-05-06 05:19 | 36.08065 | -115.16966 | 2182 ft | 12 kts | 211° |
| 2026-05-06 05:19 | 36.07986 | -115.17021 | 2181 ft | 8 kts | 203° |
| 2026-05-06 05:20 | 36.07939 | -115.17045 | 2185 ft | 0 kts | 202° |
| 2026-05-06 05:20 | 36.07879 | -115.17080 | 2183 ft | 21 kts | 205° |
| 2026-05-06 05:20 | 36.07796 | -115.17164 | 2186 ft | 13 kts | 249° |
| 2026-05-06 05:20 | 36.07812 | -115.17208 | 2188 ft | 0 kts | 0° |